Time;durP1;ratioP1;P1;durP2;ratioP2;P2;SDS_P1;SDS_P2;PMS_P1;PMS_P2;Temp;Humidity;BMP_temperature;BMP_pressure;BME280_temperature;BME280_humidity;BME280_pressure;Samples;Min_cycle;Max_cycle;Signal;HPM_P1;HPM_P2
2023/07/03 00:00:17;;;;;;;21.42;8.27;;;14.70;99.90;;;13.64;100.00;97325.28;5043705;28;20079;-74
2023/07/03 00:02:51;;;;;;;27.33;9.70;;;14.70;99.90;;;13.67;100.00;97332.94;5042911;28;20103;-75
2023/07/03 00:05:20;;;;;;;19.00;8.15;;;14.60;99.90;;;13.83;100.00;97338.06;5044567;28;20073;-75
2023/07/03 00:07:47;;;;;;;21.95;8.52;;;14.70;99.90;;;13.80;100.00;97336.50;5045388;28;20049;-75
2023/07/03 00:10:16;;;;;;;25.63;8.82;;;14.70;99.90;;;13.92;100.00;97331.47;5043786;28;20584;-75
2023/07/03 00:12:44;;;;;;;19.98;8.43;;;14.70;99.90;;;13.94;100.00;97334.84;5043954;28;20056;-75
2023/07/03 00:15:11;;;;;;;20.10;8.95;;;14.70;99.90;;;13.85;100.00;97331.00;5043667;28;20041;-75
2023/07/03 00:17:39;;;;;;;21.55;9.48;;;14.70;99.90;;;13.95;100.00;97324.28;5045230;28;20045;-75
2023/07/03 00:20:13;;;;;;;22.60;8.88;;;14.70;99.90;;;13.85;100.00;97324.94;5045014;28;20049;-74
2023/07/03 00:22:43;;;;;;;20.63;8.43;;;14.70;99.90;;;13.88;100.00;97324.75;5040363;28;20073;-75
2023/07/03 00:25:10;;;;;;;18.45;8.38;;;14.70;99.90;;;13.89;100.00;97324.66;5043226;28;20536;-75
2023/07/03 00:27:38;;;;;;;19.40;7.50;;;14.70;99.90;;;13.93;100.00;97315.69;5044850;28;20045;-75
2023/07/03 00:30:07;;;;;;;19.38;8.23;;;14.70;99.90;;;13.85;100.00;97319.72;5043348;28;20053;-75
2023/07/03 00:32:34;;;;;;;26.00;9.57;;;14.70;99.90;;;13.75;100.00;97325.50;5043988;28;20052;-75
2023/07/03 00:35:01;;;;;;;19.10;8.52;;;14.70;99.90;;;13.80;100.00;97327.84;5046084;28;20044;-75
2023/07/03 00:37:30;;;;;;;19.63;9.07;;;14.70;99.90;;;13.85;100.00;97319.72;5045705;28;20073;-75
2023/07/03 00:39:57;;;;;;;22.33;8.90;;;14.80;99.90;;;13.78;100.00;97314.88;5043495;28;20497;-74
2023/07/03 00:42:27;;;;;;;18.02;8.23;;;14.80;99.90;;;13.48;100.00;97321.88;5027810;28;20061;-75
2023/07/03 00:44:55;;;;;;;20.73;7.45;;;14.70;99.90;;;13.53;100.00;97327.69;5042914;28;20049;-75
2023/07/03 00:47:23;;;;;;;24.52;8.27;;;14.60;99.90;;;13.47;100.00;97323.66;5042951;28;20122;-75
2023/07/03 00:49:51;;;;;;;16.65;7.72;;;14.50;99.90;;;13.54;100.00;97324.13;5045118;28;20052;-75
2023/07/03 00:52:20;;;;;;;16.77;7.55;;;14.50;99.90;;;13.63;100.00;97325.38;5024700;28;20092;-75
2023/07/03 00:54:48;;;;;;;20.50;8.50;;;14.50;99.90;;;13.60;100.00;97319.41;5042808;28;20048;-74
2023/07/03 00:57:16;;;;;;;24.63;9.00;;;14.50;99.90;;;13.56;100.00;97320.50;5045214;28;20889;-75
2023/07/03 00:59:44;;;;;;;23.30;9.07;;;14.40;99.90;;;13.37;100.00;97323.34;5028966;28;20128;-75
2023/07/03 01:02:43;;;;;;;24.77;9.27;;;14.30;99.90;;;13.17;100.00;97324.47;5040322;28;20044;-75
2023/07/03 01:05:24;;;;;;;24.65;9.13;;;14.10;99.90;;;13.19;100.00;97330.44;5039384;28;20053;-75
2023/07/03 01:07:52;;;;;;;19.55;8.60;;;14.00;99.90;;;13.24;100.00;97331.94;5037472;28;20055;-75
2023/07/03 01:10:23;;;;;;;25.70;9.40;;;14.00;99.90;;;13.16;100.00;97328.00;5040356;28;20044;-75
2023/07/03 01:13:04;;;;;;;25.67;8.65;;;14.00;99.90;;;13.23;100.00;97319.81;5043519;28;20492;-75
2023/07/03 01:15:36;;;;;;;21.88;9.10;;;14.00;99.90;;;13.16;100.00;97329.78;5039427;28;20104;-74
2023/07/03 01:18:06;;;;;;;20.15;8.30;;;14.00;99.90;;;13.28;100.00;97323.06;5031984;28;20045;-75
2023/07/03 01:20:41;;;;;;;19.98;9.75;;;14.00;99.90;;;13.18;100.00;97330.50;5046869;28;20048;-74
2023/07/03 01:23:33;;;;;;;20.67;8.60;;;14.00;99.90;;;13.05;100.00;97327.78;5045590;28;20503;-75
2023/07/03 01:26:02;;;;;;;25.88;9.13;;;13.90;99.90;;;13.20;100.00;97328.66;5046982;28;20053;-74
2023/07/03 01:28:31;;;;;;;17.08;7.65;;;14.00;99.90;;;13.24;100.00;97335.38;5030110;28;20053;-76
2023/07/03 01:31:00;;;;;;;27.83;9.60;;;13.90;99.90;;;13.22;100.00;97333.78;5060791;28;20049;-75
2023/07/03 01:33:32;;;;;;;24.08;9.82;;;13.90;99.90;;;13.20;100.00;97336.47;5048017;28;20084;-75
2023/07/03 01:36:01;;;;;;;22.88;8.98;;;13.90;99.90;;;13.16;100.00;97338.44;5044931;28;20053;-76
2023/07/03 01:38:29;;;;;;;24.95;10.30;;;13.90;99.90;;;13.19;100.00;97342.63;5046120;28;20053;-75
2023/07/03 01:40:59;;;;;;;18.95;9.10;;;13.90;99.90;;;13.22;100.00;97336.41;5047825;28;20049;-75
2023/07/03 01:43:27;;;;;;;23.85;9.05;;;14.00;99.90;;;13.33;100.00;97334.88;5047012;28;20471;-75
2023/07/03 01:45:54;;;;;;;30.40;10.40;;;14.00;99.90;;;13.34;100.00;97339.19;5040966;28;20044;-75
2023/07/03 01:48:21;;;;;;;22.08;9.05;;;14.10;99.90;;;13.42;100.00;97343.94;5044790;28;20417;-75
2023/07/03 01:50:49;;;;;;;32.35;9.52;;;14.20;99.90;;;13.38;100.00;97335.44;5047116;28;20095;-75
2023/07/03 01:53:28;;;;;;;21.27;8.38;;;14.30;99.90;;;13.49;100.00;97334.84;5046169;28;20084;-76
2023/07/03 01:56:13;;;;;;;22.55;9.23;;;14.30;99.90;;;13.44;100.00;97344.69;5045622;28;20101;-75
2023/07/03 01:58:51;;;;;;;20.98;9.05;;;14.30;99.90;;;13.39;100.00;97333.72;5042960;28;20135;-76
2023/07/03 02:01:41;;;;;;;25.60;9.57;;;14.30;99.90;;;13.35;100.00;97340.03;5040322;28;20343;-75
2023/07/03 02:04:43;;;;;;;25.75;9.45;;;14.30;99.90;;;13.30;100.00;97339.44;5044178;28;20060;-75
2023/07/03 02:07:12;;;;;;;26.25;9.85;;;14.30;99.90;;;13.23;100.00;97341.53;5047598;28;20049;-74
2023/07/03 02:09:40;;;;;;;24.60;9.68;;;14.30;99.90;;;13.17;100.00;97345.31;5044220;28;20131;-75
2023/07/03 02:12:11;;;;;;;26.73;9.90;;;14.20;99.90;;;13.16;100.00;97337.59;5025800;28;20053;-75
2023/07/03 02:14:38;;;;;;;21.65;8.35;;;14.20;99.90;;;13.27;100.00;97337.81;5044182;28;20056;-75
2023/07/03 02:17:06;;;;;;;21.83;8.77;;;14.10;99.90;;;13.36;100.00;97342.56;5026562;28;20055;-73
2023/07/03 02:19:33;;;;;;;20.45;8.68;;;14.10;99.90;;;13.39;100.00;97339.75;5026199;28;20146;-75
2023/07/03 02:22:01;;;;;;;21.98;9.48;;;14.10;99.90;;;13.28;100.00;97344.75;5045468;28;20398;-75
2023/07/03 02:24:28;;;;;;;23.08;10.15;;;14.10;99.90;;;13.22;100.00;97341.63;5043223;28;20060;-75
2023/07/03 02:26:56;;;;;;;26.13;9.23;;;14.10;99.90;;;13.40;100.00;97345.81;5045067;28;20568;-75
2023/07/03 02:29:23;;;;;;;23.75;8.48;;;14.00;99.90;;;13.46;100.00;97345.47;5048047;28;20505;-75
2023/07/03 02:31:50;;;;;;;22.80;9.35;;;14.10;99.90;;;13.46;100.00;97342.00;5048442;28;20063;-75
2023/07/03 02:34:17;;;;;;;19.55;8.15;;;14.10;99.90;;;13.54;100.00;97339.78;5039378;28;20425;-75
2023/07/03 02:36:46;;;;;;;22.30;9.30;;;14.10;99.90;;;13.48;100.00;97343.59;5042366;28;20053;-75
2023/07/03 02:39:13;;;;;;;19.17;9.38;;;14.20;99.90;;;13.52;100.00;97345.06;5049268;28;20124;-75
2023/07/03 02:41:40;;;;;;;18.02;8.52;;;14.20;99.90;;;13.59;100.00;97342.97;5046287;28;20049;-75
2023/07/03 02:44:07;;;;;;;21.83;9.15;;;14.30;99.90;;;13.49;100.00;97345.25;5047224;28;20075;-75
2023/07/03 02:46:34;;;;;;;24.55;9.52;;;14.30;99.90;;;13.47;100.00;97354.13;5046764;28;20136;-75
2023/07/03 02:49:03;;;;;;;21.02;8.55;;;14.30;99.90;;;13.43;100.00;97353.44;5046121;28;20080;-75
2023/07/03 02:51:30;;;;;;;24.90;9.10;;;14.30;99.90;;;13.35;100.00;97348.66;5045734;28;20088;-75
2023/07/03 02:53:57;;;;;;;19.30;8.20;;;14.30;99.90;;;13.35;100.00;97346.06;5046196;28;20041;-75
2023/07/03 02:56:25;;;;;;;18.55;8.65;;;14.20;99.90;;;13.27;100.00;97350.00;5043316;28;20136;-75
2023/07/03 02:58:52;;;;;;;18.95;8.45;;;14.20;99.90;;;13.23;100.00;97349.34;5045314;28;20114;-75
2023/07/03 03:01:19;;;;;;;18.92;7.78;;;14.20;99.90;;;13.15;100.00;97357.59;5043503;28;20077;-75
2023/07/03 03:03:46;;;;;;;24.38;9.68;;;14.10;99.90;;;13.05;100.00;97351.22;5042847;28;20055;-75
2023/07/03 03:06:14;;;;;;;20.98;8.68;;;14.10;99.90;;;13.03;100.00;97358.28;5045327;28;20041;-75
2023/07/03 03:08:41;;;;;;;20.80;9.63;;;14.10;99.90;;;13.05;100.00;97359.03;5046811;28;20510;-75
2023/07/03 03:11:09;;;;;;;23.55;9.75;;;14.10;99.90;;;12.95;100.00;97363.06;5042522;28;20045;-75
2023/07/03 03:13:36;;;;;;;22.05;9.32;;;14.00;99.90;;;12.82;100.00;97365.53;5049177;28;20053;-75
2023/07/03 03:16:03;;;;;;;18.88;8.63;;;13.90;99.90;;;12.81;100.00;97369.06;5044968;28;20061;-75
2023/07/03 03:18:31;;;;;;;22.80;9.20;;;13.80;99.90;;;12.81;100.00;97368.22;5047584;28;20065;-75
2023/07/03 03:20:58;;;;;;;25.52;8.95;;;13.90;99.90;;;12.77;100.00;97373.59;5047922;28;20114;-75
2023/07/03 03:23:25;;;;;;;22.27;8.75;;;13.80;99.90;;;12.76;100.00;97373.69;5045351;28;20505;-75
2023/07/03 03:25:53;;;;;;;24.85;8.43;;;13.80;99.90;;;12.81;100.00;97376.88;5044798;28;20575;-75
2023/07/03 03:28:20;;;;;;;24.65;9.30;;;13.80;99.90;;;12.84;100.00;97381.06;5025279;28;20052;-75
2023/07/03 03:30:50;;;;;;;21.75;8.90;;;13.80;99.90;;;12.90;100.00;97373.75;5045295;28;20335;-75
2023/07/03 03:33:17;;;;;;;24.08;8.25;;;13.80;99.90;;;12.91;100.00;97369.41;5044632;28;20052;-75
2023/07/03 03:35:47;;;;;;;21.52;8.73;;;13.80;99.90;;;12.84;100.00;97381.06;5045672;28;20052;-75
2023/07/03 03:38:14;;;;;;;25.10;9.45;;;13.80;99.90;;;12.85;100.00;97380.16;5046687;28;20159;-75
2023/07/03 03:40:53;;;;;;;24.23;9.02;;;13.90;99.90;;;12.95;100.00;97373.50;5044366;28;20076;-75
2023/07/03 03:43:20;;;;;;;21.02;8.02;;;13.90;99.90;;;12.99;100.00;97375.00;5043643;28;20152;-75
2023/07/03 03:46:02;;;;;;;27.25;9.70;;;13.90;99.90;;;12.93;100.00;97368.38;5044239;28;20539;-75
2023/07/03 03:48:30;;;;;;;18.58;8.80;;;13.90;99.90;;;12.96;100.00;97356.97;5030257;28;20053;-75
2023/07/03 03:51:00;;;;;;;24.92;9.02;;;14.00;99.90;;;12.85;100.00;97354.09;5044444;28;20055;-75
2023/07/03 03:53:30;;;;;;;20.63;8.65;;;13.90;99.90;;;12.84;100.00;97361.09;5042977;28;20045;-75
2023/07/03 03:55:58;;;;;;;21.42;8.13;;;13.90;99.90;;;12.80;100.00;97364.78;5044985;28;20049;-75
2023/07/03 03:58:25;;;;;;;22.30;8.07;;;13.90;99.90;;;12.91;100.00;97370.25;5037987;28;20103;-75
2023/07/03 04:00:52;;;;;;;24.40;11.15;;;13.90;99.90;;;12.90;100.00;97371.16;5042617;28;20477;-75
2023/07/03 04:03:19;;;;;;;25.92;8.45;;;13.90;99.90;;;12.90;100.00;97383.34;5046403;28;20214;-75
2023/07/03 04:05:47;;;;;;;24.85;8.27;;;13.90;99.90;;;12.90;100.00;97391.97;5042123;28;20053;-75
2023/07/03 04:08:15;;;;;;;22.80;8.45;;;13.90;99.90;;;12.74;100.00;97385.94;5044661;28;20052;-75
2023/07/03 04:10:43;;;;;;;23.48;7.90;;;13.80;99.90;;;12.92;100.00;97390.13;5043550;28;20103;-75
2023/07/03 04:13:11;;;;;;;20.52;7.45;;;13.80;99.90;;;13.10;100.00;97380.47;5026841;28;20407;-75
2023/07/03 04:15:58;;;;;;;21.20;7.38;;;13.90;99.90;;;13.09;100.00;97378.81;5044681;28;20128;-74
2023/07/03 04:18:27;;;;;;;26.02;8.68;;;14.00;99.90;;;12.88;100.00;97390.41;5041772;28;20164;-75
2023/07/03 04:20:54;;;;;;;18.40;8.10;;;14.00;99.90;;;13.14;100.00;97379.38;5044878;28;20124;-76
2023/07/03 04:23:25;;;;;;;26.70;7.50;;;13.90;99.90;;;13.26;100.00;97384.81;5027757;28;20475;-75
2023/07/03 04:25:53;;;;;;;23.80;7.78;;;14.00;99.90;;;13.26;100.00;97366.59;5039862;28;20068;-76
2023/07/03 04:28:22;;;;;;;26.00;8.23;;;14.10;99.90;;;13.41;100.00;97380.53;5038804;28;20126;-75
2023/07/03 04:30:50;;;;;;;21.00;7.00;;;14.20;99.90;;;13.48;100.00;97384.47;5044591;28;20456;-76
2023/07/03 04:33:17;;;;;;;19.85;7.18;;;14.30;99.90;;;13.59;100.00;97392.50;5028176;28;20055;-75
2023/07/03 04:35:46;;;;;;;25.50;8.05;;;14.30;99.90;;;13.76;100.00;97396.75;5029512;28;20396;-76
2023/07/03 04:38:17;;;;;;;22.98;7.13;;;14.40;99.90;;;13.76;100.00;97396.75;5042374;28;20684;-75
2023/07/03 04:40:45;;;;;;;20.95;6.68;;;14.50;99.90;;;13.76;100.00;97387.16;5026066;28;20048;-75
2023/07/03 04:43:15;;;;;;;19.20;6.13;;;14.50;99.90;;;13.88;100.00;97400.41;5043633;28;20037;-75
2023/07/03 04:45:49;;;;;;;17.60;6.40;;;14.50;99.90;;;13.84;100.00;97398.91;5043085;28;20125;-76
2023/07/03 04:48:18;;;;;;;20.50;6.60;;;14.60;99.90;;;13.69;100.00;97396.28;5043985;28;20470;-76
2023/07/03 04:50:48;;;;;;;21.98;6.90;;;14.60;99.90;;;13.70;100.00;97399.72;5040821;28;20044;-76
2023/07/03 04:53:20;;;;;;;25.67;6.10;;;14.60;99.90;;;13.67;100.00;97400.75;5055448;28;20071;-75
2023/07/03 04:55:48;;;;;;;17.40;5.93;;;14.60;99.90;;;13.86;100.00;97407.50;5044674;28;20421;-75
2023/07/03 04:58:16;;;;;;;22.15;7.05;;;14.60;99.90;;;13.94;100.00;97407.91;5034719;28;20384;-75
2023/07/03 05:00:43;;;;;;;22.08;7.22;;;14.60;99.90;;;13.79;100.00;97405.22;5043910;28;20108;-74
2023/07/03 05:03:10;;;;;;;24.77;7.70;;;14.70;99.90;;;13.74;100.00;97407.28;5039801;28;20053;-76
2023/07/03 05:05:37;;;;;;;19.13;5.63;;;14.50;99.90;;;13.92;100.00;97400.16;5040667;28;20084;-76
2023/07/03 05:08:05;;;;;;;22.38;5.95;;;14.60;99.90;;;13.98;100.00;97412.84;5041588;28;20120;-75
2023/07/03 05:10:33;;;;;;;23.67;7.38;;;14.60;99.90;;;13.87;100.00;97412.63;5043857;28;20053;-75
2023/07/03 05:13:03;;;;;;;24.08;6.75;;;14.60;99.90;;;14.06;100.00;97414.97;5042303;28;20077;-74
2023/07/03 05:15:31;;;;;;;25.80;7.40;;;14.60;99.90;;;14.14;100.00;97414.53;5044128;28;20505;-75
2023/07/03 05:17:58;;;;;;;18.02;6.35;;;14.70;99.90;;;14.18;100.00;97416.84;5032979;28;20144;-76
2023/07/03 05:20:26;;;;;;;20.33;5.82;;;14.90;99.90;;;14.38;100.00;97413.06;5024119;28;20057;-76
2023/07/03 05:22:55;;;;;;;17.45;4.93;;;14.80;99.90;;;14.25;100.00;97424.31;5027041;28;20136;-76
2023/07/03 05:25:22;;;;;;;20.73;6.35;;;14.80;99.90;;;14.29;100.00;97421.44;5037928;28;20056;-76
2023/07/03 05:27:49;;;;;;;19.50;5.03;;;14.70;99.90;;;14.32;100.00;97428.25;5035998;28;20060;-76
2023/07/03 05:30:17;;;;;;;20.58;5.30;;;14.80;99.90;;;14.59;100.00;97428.38;5042857;28;20111;-75
2023/07/03 05:32:44;;;;;;;23.42;6.05;;;14.90;99.90;;;14.75;100.00;97434.34;5042313;28;20619;-76
2023/07/03 05:35:11;;;;;;;21.65;5.93;;;14.90;99.90;;;14.85;100.00;97425.00;5025045;28;20128;-75
2023/07/03 05:37:38;;;;;;;18.55;4.85;;;15.00;99.90;;;14.69;100.00;97416.44;5041498;28;20118;-76
2023/07/03 05:40:06;;;;;;;19.70;5.70;;;15.20;99.90;;;14.77;100.00;97427.25;5042872;28;20046;-75
2023/07/03 05:42:35;;;;;;;18.55;4.65;;;15.20;99.90;;;14.78;100.00;97422.84;5041457;28;20056;-75
2023/07/03 05:45:04;;;;;;;23.83;4.93;;;15.20;99.90;;;14.76;100.00;97433.41;5038114;28;20045;-76
2023/07/03 05:47:31;;;;;;;22.73;4.75;;;15.20;99.90;;;14.88;100.00;97431.81;5028143;28;20331;-74
2023/07/03 05:49:58;;;;;;;20.38;5.10;;;15.30;99.90;;;14.89;100.00;97428.25;5042175;28;20520;-75
2023/07/03 05:52:26;;;;;;;17.85;4.95;;;15.20;99.90;;;14.72;100.00;97426.69;5042529;28;20566;-75
2023/07/03 05:54:53;;;;;;;18.40;4.88;;;15.20;99.90;;;14.84;100.00;97423.31;5038245;28;20210;-75
2023/07/03 05:57:20;;;;;;;17.00;4.50;;;15.20;99.90;;;14.85;100.00;97434.63;5039725;28;20045;-76
2023/07/03 05:59:48;;;;;;;18.58;4.80;;;15.30;99.90;;;14.83;100.00;97424.25;5043212;28;20049;-76
2023/07/03 06:02:16;;;;;;;19.08;5.20;;;15.30;99.90;;;14.78;100.00;97422.84;5047493;28;20045;-75
2023/07/03 06:04:43;;;;;;;21.40;5.00;;;15.40;99.90;;;14.68;100.00;97413.91;5044979;28;20510;-76
2023/07/03 06:07:10;;;;;;;18.50;4.82;;;15.40;99.90;;;14.60;100.00;97420.47;5046386;28;20053;-76
2023/07/03 06:09:38;;;;;;;14.43;4.28;;;15.30;99.90;;;14.79;100.00;97420.16;5048933;28;20184;-75
2023/07/03 06:12:05;;;;;;;18.05;5.13;;;15.30;99.90;;;14.83;100.00;97423.44;5049405;28;20180;-76
2023/07/03 06:14:33;;;;;;;20.60;5.60;;;15.30;99.90;;;15.02;100.00;97426.56;5038402;28;20064;-76
2023/07/03 06:17:01;;;;;;;16.08;4.60;;;15.40;99.90;;;15.30;100.00;97424.78;5043059;28;20055;-76
2023/07/03 06:19:29;;;;;;;20.30;5.22;;;15.50;99.90;;;15.52;100.00;97431.28;5043919;28;20609;-75
2023/07/03 06:21:58;;;;;;;23.65;5.22;;;15.70;99.90;;;15.87;100.00;97426.34;5027633;28;20069;-76
2023/07/03 06:24:25;;;;;;;16.73;4.47;;;16.10;99.90;;;16.04;100.00;97422.63;5046430;28;20095;-76
2023/07/03 06:26:52;;;;;;;22.45;5.57;;;16.20;99.90;;;16.07;100.00;97425.88;5043960;28;20505;-75
2023/07/03 06:29:19;;;;;;;18.27;4.53;;;16.10;99.90;;;15.92;100.00;97426.06;5046189;28;20451;-76
2023/07/03 06:31:48;;;;;;;15.52;4.47;;;16.30;99.90;;;15.99;100.00;97437.81;5047435;28;20079;-76
2023/07/03 06:34:16;;;;;;;20.90;4.97;;;16.20;99.90;;;15.66;100.00;97429.41;5047630;28;20119;-76
2023/07/03 06:36:43;;;;;;;14.88;4.00;;;16.30;99.90;;;15.69;100.00;97437.09;5046210;28;20049;-76
2023/07/03 06:39:12;;;;;;;15.05;4.88;;;16.10;99.90;;;15.81;100.00;97438.09;5046923;28;20053;-76
2023/07/03 06:41:39;;;;;;;18.40;4.80;;;16.10;99.90;;;15.76;100.00;97440.19;5046010;28;20080;-76
2023/07/03 06:44:13;;;;;;;17.35;4.85;;;16.20;99.90;;;15.91;100.00;97448.78;5043675;28;20050;-76
2023/07/03 06:46:43;;;;;;;15.90;4.32;;;16.10;99.90;;;15.98;100.00;97439.56;5043244;28;20057;-75
2023/07/03 06:49:11;;;;;;;17.33;3.92;;;16.10;99.90;;;16.04;100.00;97441.78;5047624;28;20053;-76
2023/07/03 06:51:38;;;;;;;12.38;3.55;;;16.40;99.90;;;16.41;100.00;97449.78;5047161;28;20087;-76
2023/07/03 06:54:05;;;;;;;16.45;4.20;;;16.50;99.90;;;16.22;100.00;97451.97;5025938;28;20056;-75
2023/07/03 06:56:32;;;;;;;17.13;4.20;;;16.60;99.90;;;15.98;100.00;97444.81;5046432;28;20081;-76
2023/07/03 06:58:59;;;;;;;14.85;3.58;;;16.50;99.90;;;16.24;100.00;97448.31;5044369;28;20073;-75
2023/07/03 07:01:29;;;;;;;16.58;3.47;;;16.50;99.90;;;16.16;100.00;97447.16;5044119;28;20057;-76
2023/07/03 07:03:57;;;;;;;17.73;3.97;;;16.50;99.90;;;16.19;100.00;97452.16;5047438;28;20048;-75
2023/07/03 07:06:29;;;;;;;14.70;3.70;;;16.40;99.90;;;16.22;100.00;97447.56;5036023;28;20089;-76
2023/07/03 07:08:58;;;;;;;15.95;3.85;;;16.40;99.90;;;16.07;100.00;97449.44;5059017;28;20049;-75
2023/07/03 07:11:32;;;;;;;14.77;4.53;;;16.50;99.90;;;16.34;100.00;97450.31;5044098;28;20102;-76
2023/07/03 07:14:01;;;;;;;14.55;4.05;;;16.60;99.90;;;16.43;100.00;97454.91;5040970;28;20130;-76
2023/07/03 07:16:34;;;;;;;10.77;3.22;;;16.80;99.90;;;16.46;100.00;97452.09;5046705;28;20045;-76
2023/07/03 07:19:06;;;;;;;11.10;3.15;;;16.80;99.90;;;16.56;100.00;97453.13;5045163;28;20055;-76
2023/07/03 07:21:35;;;;;;;14.00;3.38;;;16.80;99.90;;;16.91;100.00;97445.47;5044486;28;20052;-76
2023/07/03 07:24:20;;;;;;;17.73;3.97;;;16.70;99.90;;;16.80;100.00;97447.16;5045021;28;20067;-75
2023/07/03 07:26:50;;;;;;;10.88;3.08;;;16.90;99.90;;;16.63;100.00;97453.56;5047671;28;20060;-75
2023/07/03 07:29:17;;;;;;;16.67;3.92;;;16.90;99.90;;;16.44;100.00;97457.41;5046164;28;20056;-75
2023/07/03 07:31:44;;;;;;;12.85;3.58;;;16.80;99.90;;;16.24;100.00;97440.47;5044618;28;20156;-75
2023/07/03 07:34:11;;;;;;;11.98;3.45;;;16.70;99.90;;;16.36;100.00;97449.25;5041416;28;20186;-75
2023/07/03 07:36:40;;;;;;;10.43;3.70;;;16.70;99.90;;;16.41;100.00;97454.19;5044971;28;20107;-75
2023/07/03 07:39:08;;;;;;;12.18;3.40;;;16.60;99.90;;;16.07;100.00;97449.44;5043472;28;20789;-76
2023/07/03 07:41:36;;;;;;;11.77;3.65;;;16.50;99.90;;;16.13;100.00;97442.13;5028930;28;20060;-76
2023/07/03 07:44:05;;;;;;;11.40;3.70;;;16.60;99.90;;;16.37;100.00;97450.91;5045481;28;20049;-75
2023/07/03 07:46:35;;;;;;;9.55;3.10;;;16.60;99.90;;;16.34;100.00;97452.94;5038486;28;20080;-76
2023/07/03 07:49:02;;;;;;;17.40;4.07;;;16.50;99.90;;;16.30;100.00;97460.97;5044695;28;20049;-76
2023/07/03 07:51:30;;;;;;;19.67;4.57;;;16.40;99.90;;;16.01;100.00;97460.34;5027109;28;20053;-76
2023/07/03 07:53:58;;;;;;;11.90;3.88;;;16.30;99.90;;;15.83;100.00;97461.56;5040295;28;20545;-76
2023/07/03 07:56:27;;;;;;;13.07;3.72;;;16.30;99.90;;;15.97;100.00;97485.03;5042826;28;20056;-75
2023/07/03 07:58:57;;;;;;;11.90;3.30;;;16.30;99.90;;;15.76;100.00;97457.63;5040412;28;20532;-76
2023/07/03 08:01:24;;;;;;;9.80;3.00;;;16.30;99.90;;;15.99;100.00;97483.16;5042258;28;20080;-76
2023/07/03 08:03:51;;;;;;;14.48;4.47;;;16.30;99.90;;;15.91;100.00;97472.34;5045281;28;20068;-75
2023/07/03 08:06:19;;;;;;;19.02;4.03;;;16.40;99.90;;;15.94;100.00;97485.22;5043260;28;20297;-76
2023/07/03 08:08:46;;;;;;;16.30;3.97;;;16.40;99.90;;;16.12;100.00;97488.41;5041855;28;20095;-76
2023/07/03 08:11:14;;;;;;;13.13;4.07;;;16.40;99.90;;;16.28;100.00;97473.38;5043505;28;20462;-75
2023/07/03 08:13:41;;;;;;;12.75;3.88;;;16.40;99.90;;;16.43;100.00;97468.84;5045661;28;20052;-76
2023/07/03 08:16:10;;;;;;;11.65;3.70;;;16.50;99.90;;;16.50;100.00;97477.97;5057282;28;20149;-76
2023/07/03 08:18:38;;;;;;;15.02;3.35;;;16.60;99.90;;;16.63;100.00;97471.91;5044383;28;20049;-75
2023/07/03 08:21:05;;;;;;;16.60;3.40;;;16.80;99.90;;;16.72;100.00;97495.69;5046501;28;20041;-75
2023/07/03 08:23:32;;;;;;;12.73;3.35;;;16.80;99.90;;;16.31;100.00;97475.75;5043024;28;20049;-76
2023/07/03 08:26:01;;;;;;;13.20;3.28;;;16.50;99.90;;;16.36;100.00;97474.63;5026751;28;20077;-74
2023/07/03 08:28:29;;;;;;;13.73;3.47;;;16.70;99.90;;;16.34;100.00;97487.81;5043652;28;20061;-75
2023/07/03 08:30:57;;;;;;;14.18;3.83;;;16.70;99.90;;;16.58;100.00;97485.31;5044154;28;20081;-75
2023/07/03 08:33:25;;;;;;;11.57;3.38;;;16.80;99.90;;;16.64;100.00;97476.19;5039508;28;20072;-76
2023/07/03 08:35:53;;;;;;;15.18;3.90;;;16.70;99.90;;;16.65;100.00;97478.72;5021484;28;20060;-76
2023/07/03 08:38:23;;;;;;;10.63;3.30;;;16.90;99.90;;;16.83;100.00;97470.53;5047430;28;20091;-76
2023/07/03 08:41:00;;;;;;;13.43;3.83;;;17.20;99.90;;;17.01;100.00;97486.75;5043137;28;20053;-76
2023/07/03 08:43:39;;;;;;;20.17;4.07;;;17.20;99.90;;;16.75;100.00;97471.03;5033974;28;20061;-76
2023/07/03 08:46:14;;;;;;;14.20;4.78;;;17.00;99.90;;;16.77;100.00;97470.94;5044216;28;20048;-76
2023/07/03 08:48:43;;;;;;;12.57;3.53;;;17.00;99.90;;;16.85;100.00;97489.63;5043049;28;20417;-75
2023/07/03 08:51:15;;;;;;;14.40;3.42;;;16.90;99.90;;;17.02;100.00;97504.19;5042865;28;20560;-76
2023/07/03 08:53:48;;;;;;;13.77;3.53;;;16.90;99.90;;;17.22;100.00;97487.03;5041930;28;20124;-76
2023/07/03 08:56:25;;;;;;;15.80;3.88;;;17.10;99.90;;;16.85;100.00;97476.50;5021457;28;20312;-75
2023/07/03 08:58:55;;;;;;;12.38;4.00;;;17.30;99.90;;;17.25;100.00;97471.09;5026462;28;20094;-75
2023/07/03 09:01:45;;;;;;;13.65;3.67;;;17.50;99.90;;;17.45;100.00;97467.88;5040704;28;20123;-75
2023/07/03 09:04:46;;;;;;;14.32;4.45;;;17.80;99.90;;;17.92;100.00;97481.13;5041970;28;20041;-76
2023/07/03 09:07:31;;;;;;;13.05;3.40;;;18.00;99.90;;;19.49;100.00;97462.00;5041527;28;20052;-75
2023/07/03 09:10:44;;;;;;;12.55;3.15;;;19.20;99.90;;;19.41;100.00;97472.34;5041579;28;20053;-76
2023/07/03 09:13:31;;;;;;;12.88;2.85;;;19.40;99.90;;;18.59;100.00;97465.53;5001251;28;20505;-75
2023/07/03 09:16:19;;;;;;;12.85;3.25;;;18.80;99.90;;;18.14;100.00;97472.50;5023641;28;20077;-75
2023/07/03 09:18:58;;;;;;;13.90;3.33;;;18.50;99.90;;;17.91;100.00;97463.69;5040474;28;20045;-76
2023/07/03 09:21:28;;;;;;;14.45;4.00;;;18.50;99.90;;;17.74;100.00;97470.16;5027855;28;20072;-75
2023/07/03 09:24:28;;;;;;;19.08;3.88;;;18.50;99.90;;;17.68;100.00;97473.25;5043364;28;20072;-76
2023/07/03 09:27:21;;;;;;;11.85;3.30;;;18.40;99.90;;;17.94;100.00;97479.22;5041306;28;20131;-76
2023/07/03 09:29:49;;;;;;;14.60;2.78;;;18.50;99.90;;;17.76;100.00;97473.50;5039905;28;20052;-76
2023/07/03 09:32:27;;;;;;;12.63;3.80;;;18.50;99.90;;;17.18;100.00;97473.31;5041237;28;20045;-76
2023/07/03 09:35:07;;;;;;;15.20;3.92;;;18.00;99.90;;;17.45;100.00;97477.53;5038358;28;20096;-76
2023/07/03 09:37:37;;;;;;;11.48;2.70;;;17.80;99.90;;;17.51;100.00;97485.78;5042053;28;20055;-76
2023/07/03 09:40:10;;;;;;;16.75;3.97;;;17.90;99.90;;;17.97;100.00;97479.84;5046465;28;20048;-76
2023/07/03 09:42:37;;;;;;;13.20;3.80;;;18.10;99.90;;;18.53;100.00;97476.50;5044268;28;20048;-76
2023/07/03 09:45:14;;;;;;;12.50;3.78;;;18.60;99.90;;;19.03;100.00;97484.09;5049616;28;20041;-76
2023/07/03 09:47:50;;;;;;;16.23;2.95;;;19.30;99.90;;;19.53;100.00;97466.06;5045356;28;20056;-74
2023/07/03 09:50:27;;;;;;;12.80;4.05;;;19.40;99.90;;;20.31;100.00;97450.91;5044266;28;20077;-76
2023/07/03 09:52:59;;;;;;;11.32;2.65;;;20.50;99.90;;;20.23;100.00;97426.97;5047752;28;20049;-75
2023/07/03 09:55:34;;;;;;;6.82;2.22;;;21.20;99.90;;;20.18;100.00;97459.00;5046459;28;20214;-75
2023/07/03 09:58:15;;;;;;;10.50;3.22;;;20.30;99.90;;;19.30;100.00;97453.94;5046173;28;20057;-75
2023/07/03 10:00:48;;;;;;;9.45;3.05;;;20.20;99.90;;;19.12;100.00;97461.50;5043815;28;20133;-75
2023/07/03 10:03:31;;;;;;;8.48;3.08;;;19.80;99.90;;;18.91;100.00;97461.41;5047225;28;20049;-73
2023/07/03 10:06:15;;;;;;;12.15;3.40;;;19.50;99.90;;;18.59;100.00;97467.34;5034951;28;20045;-75
2023/07/03 10:08:50;;;;;;;14.40;3.25;;;19.10;99.90;;;18.30;100.00;97482.69;5032414;28;20553;-75
2023/07/03 10:11:49;;;;;;;9.95;3.25;;;18.80;99.90;;;18.11;100.00;97483.19;5043299;28;20059;-76
2023/07/03 10:14:25;;;;;;;11.55;2.28;;;18.30;99.90;;;18.59;100.00;97478.69;5046341;28;20545;-75
2023/07/03 10:16:52;;;;;;;9.65;3.35;;;18.40;99.90;;;18.54;100.00;97479.97;5048400;28;20053;-75
2023/07/03 10:19:21;;;;;;;8.68;2.83;;;18.60;99.90;;;18.91;100.00;97490.31;5047377;28;20049;-76